sensor_id;sensor_type;location;lat;lon;timestamp;temperature;humidity
6018;DHT22;3037;51.068;13.780;2023-04-22T00:01:31;10.10;93.20
6018;DHT22;3037;51.068;13.780;2023-04-22T00:03:56;9.90;94.50
6018;DHT22;3037;51.068;13.780;2023-04-22T00:06:22;10.00;94.40
6018;DHT22;3037;51.068;13.780;2023-04-22T00:08:47;9.90;94.60
6018;DHT22;3037;51.068;13.780;2023-04-22T00:11:13;9.90;94.40
6018;DHT22;3037;51.068;13.780;2023-04-22T00:13:38;9.70;93.90
6018;DHT22;3037;51.068;13.780;2023-04-22T00:16:04;9.80;93.60
6018;DHT22;3037;51.068;13.780;2023-04-22T00:18:29;9.80;93.70
6018;DHT22;3037;51.068;13.780;2023-04-22T00:20:55;9.80;94.50
6018;DHT22;3037;51.068;13.780;2023-04-22T00:23:20;9.80;94.70
6018;DHT22;3037;51.068;13.780;2023-04-22T00:25:46;9.70;95.60
6018;DHT22;3037;51.068;13.780;2023-04-22T00:28:11;9.70;96.00
6018;DHT22;3037;51.068;13.780;2023-04-22T00:30:37;9.60;96.60
6018;DHT22;3037;51.068;13.780;2023-04-22T00:33:02;9.60;96.90
6018;DHT22;3037;51.068;13.780;2023-04-22T00:35:28;9.40;98.70
6018;DHT22;3037;51.068;13.780;2023-04-22T00:37:54;9.40;99.90
6018;DHT22;3037;51.068;13.780;2023-04-22T00:40:19;9.20;99.90
6018;DHT22;3037;51.068;13.780;2023-04-22T00:42:48;9.10;99.90
6018;DHT22;3037;51.068;13.780;2023-04-22T00:45:14;8.90;99.90
6018;DHT22;3037;51.068;13.780;2023-04-22T00:47:43;9.00;99.90
6018;DHT22;3037;51.068;13.780;2023-04-22T00:50:09;8.90;99.90
6018;DHT22;3037;51.068;13.780;2023-04-22T00:52:35;8.90;99.90
6018;DHT22;3037;51.068;13.780;2023-04-22T00:55:01;8.90;99.90
6018;DHT22;3037;51.068;13.780;2023-04-22T00:57:28;8.80;99.90
6018;DHT22;3037;51.068;13.780;2023-04-22T00:59:54;8.80;99.90
6018;DHT22;3037;51.068;13.780;2023-04-22T01:02:20;8.90;99.90
6018;DHT22;3037;51.068;13.780;2023-04-22T01:04:45;8.80;99.90
6018;DHT22;3037;51.068;13.780;2023-04-22T01:07:11;8.70;99.90
6018;DHT22;3037;51.068;13.780;2023-04-22T01:09:37;8.60;99.90
6018;DHT22;3037;51.068;13.780;2023-04-22T01:12:04;8.60;99.90
6018;DHT22;3037;51.068;13.780;2023-04-22T01:14:30;8.50;99.90
6018;DHT22;3037;51.068;13.780;2023-04-22T01:16:55;8.60;99.90
6018;DHT22;3037;51.068;13.780;2023-04-22T01:19:22;8.70;99.90
6018;DHT22;3037;51.068;13.780;2023-04-22T01:21:50;8.70;99.90
6018;DHT22;3037;51.068;13.780;2023-04-22T01:24:16;8.60;99.90
6018;DHT22;3037;51.068;13.780;2023-04-22T01:26:41;8.40;99.90
6018;DHT22;3037;51.068;13.780;2023-04-22T01:29:07;8.30;99.90
6018;DHT22;3037;51.068;13.780;2023-04-22T01:31:33;8.20;99.90
6018;DHT22;3037;51.068;13.780;2023-04-22T01:33:59;8.40;99.90
6018;DHT22;3037;51.068;13.780;2023-04-22T01:36:26;8.40;99.90
6018;DHT22;3037;51.068;13.780;2023-04-22T01:38:51;8.20;99.90
6018;DHT22;3037;51.068;13.780;2023-04-22T01:41:17;8.20;99.90
6018;DHT22;3037;51.068;13.780;2023-04-22T01:43:43;8.10;99.90
6018;DHT22;3037;51.068;13.780;2023-04-22T01:46:09;8.10;99.90
6018;DHT22;3037;51.068;13.780;2023-04-22T01:48:34;8.10;99.90
6018;DHT22;3037;51.068;13.780;2023-04-22T01:51:01;8.00;99.90
6018;DHT22;3037;51.068;13.780;2023-04-22T01:53:27;8.10;99.90
6018;DHT22;3037;51.068;13.780;2023-04-22T01:55:52;8.10;99.90
6018;DHT22;3037;51.068;13.780;2023-04-22T01:58:18;8.00;99.90
6018;DHT22;3037;51.068;13.780;2023-04-22T02:00:44;8.00;99.90
6018;DHT22;3037;51.068;13.780;2023-04-22T02:03:09;8.00;99.90
6018;DHT22;3037;51.068;13.780;2023-04-22T02:05:36;7.90;99.90
6018;DHT22;3037;51.068;13.780;2023-04-22T02:08:02;7.90;99.90
6018;DHT22;3037;51.068;13.780;2023-04-22T02:10:27;7.90;99.90
6018;DHT22;3037;51.068;13.780;2023-04-22T02:12:53;7.90;99.90
6018;DHT22;3037;51.068;13.780;2023-04-22T02:15:18;7.90;99.90
6018;DHT22;3037;51.068;13.780;2023-04-22T02:17:44;7.80;99.90
6018;DHT22;3037;51.068;13.780;2023-04-22T02:20:10;7.80;99.90
6018;DHT22;3037;51.068;13.780;2023-04-22T02:22:37;7.80;99.90
6018;DHT22;3037;51.068;13.780;2023-04-22T02:25:03;7.90;99.90
6018;DHT22;3037;51.068;13.780;2023-04-22T02:27:29;7.90;99.90
6018;DHT22;3037;51.068;13.780;2023-04-22T02:29:54;7.90;99.90
6018;DHT22;3037;51.068;13.780;2023-04-22T02:32:20;7.80;99.90
6018;DHT22;3037;51.068;13.780;2023-04-22T02:34:46;7.80;99.90
6018;DHT22;3037;51.068;13.780;2023-04-22T02:37:12;7.80;99.90
6018;DHT22;3037;51.068;13.780;2023-04-22T02:39:37;7.80;99.90
6018;DHT22;3037;51.068;13.780;2023-04-22T02:42:02;7.80;99.90
6018;DHT22;3037;51.068;13.780;2023-04-22T02:44:28;7.70;99.90
6018;DHT22;3037;51.068;13.780;2023-04-22T02:46:53;7.70;99.90
6018;DHT22;3037;51.068;13.780;2023-04-22T02:49:19;7.80;99.90
6018;DHT22;3037;51.068;13.780;2023-04-22T02:51:45;7.80;99.90
6018;DHT22;3037;51.068;13.780;2023-04-22T02:54:11;7.80;99.90
6018;DHT22;3037;51.068;13.780;2023-04-22T02:56:36;7.70;99.90
6018;DHT22;3037;51.068;13.780;2023-04-22T02:59:02;7.50;99.90
6018;DHT22;3037;51.068;13.780;2023-04-22T03:01:27;7.50;99.90
6018;DHT22;3037;51.068;13.780;2023-04-22T03:03:53;7.70;99.90
6018;DHT22;3037;51.068;13.780;2023-04-22T03:06:18;7.70;99.90
6018;DHT22;3037;51.068;13.780;2023-04-22T03:08:44;7.60;99.90
6018;DHT22;3037;51.068;13.780;2023-04-22T03:11:09;7.70;99.90
6018;DHT22;3037;51.068;13.780;2023-04-22T03:13:35;7.70;99.90
6018;DHT22;3037;51.068;13.780;2023-04-22T03:16:00;7.60;99.90
6018;DHT22;3037;51.068;13.780;2023-04-22T03:18:26;7.50;99.90
6018;DHT22;3037;51.068;13.780;2023-04-22T03:20:51;7.60;99.90
6018;DHT22;3037;51.068;13.780;2023-04-22T03:23:17;7.50;99.90
6018;DHT22;3037;51.068;13.780;2023-04-22T03:25:42;7.50;99.90
6018;DHT22;3037;51.068;13.780;2023-04-22T03:28:08;7.60;99.90
6018;DHT22;3037;51.068;13.780;2023-04-22T03:30:33;7.60;99.90
6018;DHT22;3037;51.068;13.780;2023-04-22T03:32:59;7.60;99.90
6018;DHT22;3037;51.068;13.780;2023-04-22T03:35:24;7.60;99.90
6018;DHT22;3037;51.068;13.780;2023-04-22T03:37:50;7.50;99.90
6018;DHT22;3037;51.068;13.780;2023-04-22T03:40:15;7.50;99.90
6018;DHT22;3037;51.068;13.780;2023-04-22T03:42:41;7.60;99.90
6018;DHT22;3037;51.068;13.780;2023-04-22T03:45:06;7.50;99.90
6018;DHT22;3037;51.068;13.780;2023-04-22T03:47:32;7.50;99.90
6018;DHT22;3037;51.068;13.780;2023-04-22T03:49:57;7.40;99.90
6018;DHT22;3037;51.068;13.780;2023-04-22T03:52:23;7.40;99.90
6018;DHT22;3037;51.068;13.780;2023-04-22T03:54:48;7.40;99.90
6018;DHT22;3037;51.068;13.780;2023-04-22T03:57:14;7.30;99.90
6018;DHT22;3037;51.068;13.780;2023-04-22T03:59:39;7.30;99.90
6018;DHT22;3037;51.068;13.780;2023-04-22T04:02:05;7.10;99.90
6018;DHT22;3037;51.068;13.780;2023-04-22T04:04:32;7.10;99.90
6018;DHT22;3037;51.068;13.780;2023-04-22T04:06:59;7.10;99.90
6018;DHT22;3037;51.068;13.780;2023-04-22T04:09:25;7.10;99.90
6018;DHT22;3037;51.068;13.780;2023-04-22T04:11:50;7.10;99.90
6018;DHT22;3037;51.068;13.780;2023-04-22T04:14:15;7.20;99.90
6018;DHT22;3037;51.068;13.780;2023-04-22T04:16:41;7.40;99.90
6018;DHT22;3037;51.068;13.780;2023-04-22T04:19:07;7.50;99.90
6018;DHT22;3037;51.068;13.780;2023-04-22T04:21:32;7.60;99.90
6018;DHT22;3037;51.068;13.780;2023-04-22T04:23:58;7.60;99.90
6018;DHT22;3037;51.068;13.780;2023-04-22T04:26:24;7.50;99.90
6018;DHT22;3037;51.068;13.780;2023-04-22T04:28:52;7.50;99.90
6018;DHT22;3037;51.068;13.780;2023-04-22T04:31:17;7.40;99.90
6018;DHT22;3037;51.068;13.780;2023-04-22T04:33:43;7.60;99.90
6018;DHT22;3037;51.068;13.780;2023-04-22T04:36:08;7.60;99.90
6018;DHT22;3037;51.068;13.780;2023-04-22T04:38:34;7.50;99.90
6018;DHT22;3037;51.068;13.780;2023-04-22T04:41:00;7.60;99.90
6018;DHT22;3037;51.068;13.780;2023-04-22T04:43:25;7.60;99.90
6018;DHT22;3037;51.068;13.780;2023-04-22T04:45:51;7.70;99.90
6018;DHT22;3037;51.068;13.780;2023-04-22T04:48:17;7.80;99.90
6018;DHT22;3037;51.068;13.780;2023-04-22T04:50:44;7.80;99.90
6018;DHT22;3037;51.068;13.780;2023-04-22T04:53:10;7.80;99.90
6018;DHT22;3037;51.068;13.780;2023-04-22T04:55:36;7.90;99.90
6018;DHT22;3037;51.068;13.780;2023-04-22T04:58:01;7.90;99.90
6018;DHT22;3037;51.068;13.780;2023-04-22T05:00:27;8.00;99.90
6018;DHT22;3037;51.068;13.780;2023-04-22T05:02:53;8.10;99.90
6018;DHT22;3037;51.068;13.780;2023-04-22T05:05:18;8.10;99.90
6018;DHT22;3037;51.068;13.780;2023-04-22T05:07:44;8.20;99.90
6018;DHT22;3037;51.068;13.780;2023-04-22T05:10:10;8.30;99.90
6018;DHT22;3037;51.068;13.780;2023-04-22T05:12:35;8.30;99.90
6018;DHT22;3037;51.068;13.780;2023-04-22T05:15:01;8.20;99.90
6018;DHT22;3037;51.068;13.780;2023-04-22T05:17:27;8.20;99.90
6018;DHT22;3037;51.068;13.780;2023-04-22T05:19:53;8.30;99.90
6018;DHT22;3037;51.068;13.780;2023-04-22T05:22:18;8.30;99.90
6018;DHT22;3037;51.068;13.780;2023-04-22T05:24:44;8.40;99.90
6018;DHT22;3037;51.068;13.780;2023-04-22T05:27:09;8.70;99.90
6018;DHT22;3037;51.068;13.780;2023-04-22T05:29:35;8.80;99.90
6018;DHT22;3037;51.068;13.780;2023-04-22T05:32:01;9.00;99.90
6018;DHT22;3037;51.068;13.780;2023-04-22T05:34:26;9.10;99.90
6018;DHT22;3037;51.068;13.780;2023-04-22T05:36:52;9.10;99.90
6018;DHT22;3037;51.068;13.780;2023-04-22T05:39:18;9.30;99.90
6018;DHT22;3037;51.068;13.780;2023-04-22T05:41:44;9.50;99.90
6018;DHT22;3037;51.068;13.780;2023-04-22T05:44:09;9.70;99.90
6018;DHT22;3037;51.068;13.780;2023-04-22T05:46:35;9.80;99.90
6018;DHT22;3037;51.068;13.780;2023-04-22T05:49:01;10.10;99.90
6018;DHT22;3037;51.068;13.780;2023-04-22T05:51:26;10.30;99.90
6018;DHT22;3037;51.068;13.780;2023-04-22T05:53:52;10.50;99.30
6018;DHT22;3037;51.068;13.780;2023-04-22T05:56:17;10.60;97.30
6018;DHT22;3037;51.068;13.780;2023-04-22T05:58:43;10.90;94.30
6018;DHT22;3037;51.068;13.780;2023-04-22T06:01:08;11.20;92.60
6018;DHT22;3037;51.068;13.780;2023-04-22T06:03:34;12.30;85.90
6018;DHT22;3037;51.068;13.780;2023-04-22T06:05:59;15.30;48.00
6018;DHT22;3037;51.068;13.780;2023-04-22T06:08:26;16.50;23.30
6018;DHT22;3037;51.068;13.780;2023-04-22T06:10:52;16.90;14.00
6018;DHT22;3037;51.068;13.780;2023-04-22T06:13:17;18.10;1.00
6018;DHT22;3037;51.068;13.780;2023-04-22T06:15:43;19.30;1.00
6018;DHT22;3037;51.068;13.780;2023-04-22T06:18:08;19.90;1.00
6018;DHT22;3037;51.068;13.780;2023-04-22T06:20:34;20.90;1.00
6018;DHT22;3037;51.068;13.780;2023-04-22T06:23:00;21.10;1.00
6018;DHT22;3037;51.068;13.780;2023-04-22T06:25:26;21.50;1.00
6018;DHT22;3037;51.068;13.780;2023-04-22T06:27:52;21.80;1.00
6018;DHT22;3037;51.068;13.780;2023-04-22T06:30:17;22.40;1.00
6018;DHT22;3037;51.068;13.780;2023-04-22T06:32:43;23.50;1.00
6018;DHT22;3037;51.068;13.780;2023-04-22T06:35:08;24.20;1.00
6018;DHT22;3037;51.068;13.780;2023-04-22T06:37:34;24.20;1.00
6018;DHT22;3037;51.068;13.780;2023-04-22T06:40:00;24.40;1.00
6018;DHT22;3037;51.068;13.780;2023-04-22T06:42:25;24.10;1.00
6018;DHT22;3037;51.068;13.780;2023-04-22T06:44:51;24.10;1.00
6018;DHT22;3037;51.068;13.780;2023-04-22T06:47:16;24.40;1.00
6018;DHT22;3037;51.068;13.780;2023-04-22T06:49:42;24.30;1.00
6018;DHT22;3037;51.068;13.780;2023-04-22T06:52:09;25.30;1.00
6018;DHT22;3037;51.068;13.780;2023-04-22T06:54:34;25.60;1.00
6018;DHT22;3037;51.068;13.780;2023-04-22T06:57:00;25.70;1.00
6018;DHT22;3037;51.068;13.780;2023-04-22T06:59:25;25.90;1.00
6018;DHT22;3037;51.068;13.780;2023-04-22T07:01:51;27.00;1.00
6018;DHT22;3037;51.068;13.780;2023-04-22T07:04:16;28.20;1.00
6018;DHT22;3037;51.068;13.780;2023-04-22T07:06:42;27.20;1.00
6018;DHT22;3037;51.068;13.780;2023-04-22T07:09:07;27.70;1.00
6018;DHT22;3037;51.068;13.780;2023-04-22T07:11:33;27.10;1.00
6018;DHT22;3037;51.068;13.780;2023-04-22T07:13:59;27.80;1.00
6018;DHT22;3037;51.068;13.780;2023-04-22T07:16:25;28.90;1.00
6018;DHT22;3037;51.068;13.780;2023-04-22T07:18:51;29.50;1.00
6018;DHT22;3037;51.068;13.780;2023-04-22T07:21:16;27.70;1.00
6018;DHT22;3037;51.068;13.780;2023-04-22T07:23:42;28.50;1.00
6018;DHT22;3037;51.068;13.780;2023-04-22T07:26:07;28.10;1.00
6018;DHT22;3037;51.068;13.780;2023-04-22T07:28:33;28.40;1.00
6018;DHT22;3037;51.068;13.780;2023-04-22T07:30:58;28.30;1.00
6018;DHT22;3037;51.068;13.780;2023-04-22T07:33:24;27.90;1.00
6018;DHT22;3037;51.068;13.780;2023-04-22T07:35:49;28.50;1.00
6018;DHT22;3037;51.068;13.780;2023-04-22T07:38:15;28.30;1.00
6018;DHT22;3037;51.068;13.780;2023-04-22T07:40:40;29.60;1.00
6018;DHT22;3037;51.068;13.780;2023-04-22T07:43:06;28.70;1.00
6018;DHT22;3037;51.068;13.780;2023-04-22T07:45:31;27.70;1.00
6018;DHT22;3037;51.068;13.780;2023-04-22T07:47:57;26.80;1.00
6018;DHT22;3037;51.068;13.780;2023-04-22T07:50:23;28.40;1.00
6018;DHT22;3037;51.068;13.780;2023-04-22T07:52:48;29.20;1.00
6018;DHT22;3037;51.068;13.780;2023-04-22T07:55:14;30.60;1.00
6018;DHT22;3037;51.068;13.780;2023-04-22T07:57:40;30.10;1.00
6018;DHT22;3037;51.068;13.780;2023-04-22T08:00:06;29.20;1.00
6018;DHT22;3037;51.068;13.780;2023-04-22T08:02:32;29.00;1.00
6018;DHT22;3037;51.068;13.780;2023-04-22T08:04:58;28.90;1.00
6018;DHT22;3037;51.068;13.780;2023-04-22T08:07:24;29.00;1.00
6018;DHT22;3037;51.068;13.780;2023-04-22T08:09:49;27.90;1.00
6018;DHT22;3037;51.068;13.780;2023-04-22T08:12:15;28.40;1.00
6018;DHT22;3037;51.068;13.780;2023-04-22T08:14:40;29.60;1.00
6018;DHT22;3037;51.068;13.780;2023-04-22T08:17:06;28.50;1.00
6018;DHT22;3037;51.068;13.780;2023-04-22T08:19:31;29.10;1.00
6018;DHT22;3037;51.068;13.780;2023-04-22T08:21:57;29.00;1.00
6018;DHT22;3037;51.068;13.780;2023-04-22T08:24:22;28.50;1.00
6018;DHT22;3037;51.068;13.780;2023-04-22T08:26:48;28.50;1.00
6018;DHT22;3037;51.068;13.780;2023-04-22T08:29:13;28.10;1.00
6018;DHT22;3037;51.068;13.780;2023-04-22T08:31:39;28.40;1.00
6018;DHT22;3037;51.068;13.780;2023-04-22T08:34:04;28.70;1.00
6018;DHT22;3037;51.068;13.780;2023-04-22T08:36:30;28.20;1.00
6018;DHT22;3037;51.068;13.780;2023-04-22T08:38:56;28.50;1.00
6018;DHT22;3037;51.068;13.780;2023-04-22T08:41:22;27.60;1.00
6018;DHT22;3037;51.068;13.780;2023-04-22T08:43:52;27.80;1.00
6018;DHT22;3037;51.068;13.780;2023-04-22T08:46:18;27.70;1.00
6018;DHT22;3037;51.068;13.780;2023-04-22T08:48:48;26.90;1.00
6018;DHT22;3037;51.068;13.780;2023-04-22T08:51:15;27.10;1.00
6018;DHT22;3037;51.068;13.780;2023-04-22T08:53:44;27.40;1.00
6018;DHT22;3037;51.068;13.780;2023-04-22T08:56:12;27.50;1.00
6018;DHT22;3037;51.068;13.780;2023-04-22T08:58:40;26.30;1.00
6018;DHT22;3037;51.068;13.780;2023-04-22T09:01:06;26.60;1.00
6018;DHT22;3037;51.068;13.780;2023-04-22T09:03:34;26.90;1.00
6018;DHT22;3037;51.068;13.780;2023-04-22T09:06:02;26.70;1.00
6018;DHT22;3037;51.068;13.780;2023-04-22T09:08:28;26.10;1.00
6018;DHT22;3037;51.068;13.780;2023-04-22T09:10:54;27.00;1.00
6018;DHT22;3037;51.068;13.780;2023-04-22T09:13:20;26.20;1.00
6018;DHT22;3037;51.068;13.780;2023-04-22T09:15:46;26.70;1.00
6018;DHT22;3037;51.068;13.780;2023-04-22T09:18:16;26.20;1.00
6018;DHT22;3037;51.068;13.780;2023-04-22T09:20:43;26.80;1.00
6018;DHT22;3037;51.068;13.780;2023-04-22T09:23:11;25.90;1.00
6018;DHT22;3037;51.068;13.780;2023-04-22T09:25:37;26.20;1.00
6018;DHT22;3037;51.068;13.780;2023-04-22T09:28:03;26.10;1.00
6018;DHT22;3037;51.068;13.780;2023-04-22T09:30:33;25.80;1.00
6018;DHT22;3037;51.068;13.780;2023-04-22T09:33:01;26.00;1.00
6018;DHT22;3037;51.068;13.780;2023-04-22T09:35:32;25.80;1.00
6018;DHT22;3037;51.068;13.780;2023-04-22T09:37:59;25.80;1.00
6018;DHT22;3037;51.068;13.780;2023-04-22T09:40:26;26.00;1.00
6018;DHT22;3037;51.068;13.780;2023-04-22T09:42:53;26.00;1.00
6018;DHT22;3037;51.068;13.780;2023-04-22T09:45:27;26.30;1.00
6018;DHT22;3037;51.068;13.780;2023-04-22T09:47:54;26.50;1.00
6018;DHT22;3037;51.068;13.780;2023-04-22T09:50:25;26.50;1.00
6018;DHT22;3037;51.068;13.780;2023-04-22T09:52:56;26.00;1.00
6018;DHT22;3037;51.068;13.780;2023-04-22T09:55:23;27.50;1.00
6018;DHT22;3037;51.068;13.780;2023-04-22T09:57:51;26.40;1.00
6018;DHT22;3037;51.068;13.780;2023-04-22T10:00:17;26.90;1.00
6018;DHT22;3037;51.068;13.780;2023-04-22T10:02:43;26.00;1.00
6018;DHT22;3037;51.068;13.780;2023-04-22T10:05:08;25.70;1.00
6018;DHT22;3037;51.068;13.780;2023-04-22T10:07:38;25.10;1.00
6018;DHT22;3037;51.068;13.780;2023-04-22T10:10:07;25.40;1.00
6018;DHT22;3037;51.068;13.780;2023-04-22T10:12:36;25.70;1.00
6018;DHT22;3037;51.068;13.780;2023-04-22T10:15:03;26.20;1.00
6018;DHT22;3037;51.068;13.780;2023-04-22T10:17:31;26.50;1.00
6018;DHT22;3037;51.068;13.780;2023-04-22T10:19:59;26.00;1.00
6018;DHT22;3037;51.068;13.780;2023-04-22T10:22:29;26.40;1.00
6018;DHT22;3037;51.068;13.780;2023-04-22T10:24:55;25.40;1.00
6018;DHT22;3037;51.068;13.780;2023-04-22T10:27:22;25.90;1.00
6018;DHT22;3037;51.068;13.780;2023-04-22T10:29:48;26.20;1.00
6018;DHT22;3037;51.068;13.780;2023-04-22T10:34:45;25.90;1.00
6018;DHT22;3037;51.068;13.780;2023-04-22T10:37:18;25.70;1.00
6018;DHT22;3037;51.068;13.780;2023-04-22T10:40:07;26.80;1.00
6018;DHT22;3037;51.068;13.780;2023-04-22T10:42:33;25.60;1.00
6018;DHT22;3037;51.068;13.780;2023-04-22T10:45:00;26.40;1.00
6018;DHT22;3037;51.068;13.780;2023-04-22T10:47:33;25.20;1.00
6018;DHT22;3037;51.068;13.780;2023-04-22T10:50:11;25.50;1.00
6018;DHT22;3037;51.068;13.780;2023-04-22T10:52:37;26.30;1.00
6018;DHT22;3037;51.068;13.780;2023-04-22T10:55:03;26.20;1.00
6018;DHT22;3037;51.068;13.780;2023-04-22T10:57:30;27.10;1.00
6018;DHT22;3037;51.068;13.780;2023-04-22T11:00:23;26.70;1.00
6018;DHT22;3037;51.068;13.780;2023-04-22T11:05:29;26.80;1.00
6018;DHT22;3037;51.068;13.780;2023-04-22T11:07:59;26.90;1.00
6018;DHT22;3037;51.068;13.780;2023-04-22T11:13:00;25.40;1.00
6018;DHT22;3037;51.068;13.780;2023-04-22T11:15:28;25.00;1.00
6018;DHT22;3037;51.068;13.780;2023-04-22T11:17:54;24.30;1.00
6018;DHT22;3037;51.068;13.780;2023-04-22T11:20:20;25.00;1.00
6018;DHT22;3037;51.068;13.780;2023-04-22T11:22:48;25.30;1.00
6018;DHT22;3037;51.068;13.780;2023-04-22T11:25:14;25.60;1.00
6018;DHT22;3037;51.068;13.780;2023-04-22T11:27:41;24.80;1.00
6018;DHT22;3037;51.068;13.780;2023-04-22T11:32:46;23.30;1.00
6018;DHT22;3037;51.068;13.780;2023-04-22T11:35:16;23.20;1.00
6018;DHT22;3037;51.068;13.780;2023-04-22T11:40:20;24.60;1.00
6018;DHT22;3037;51.068;13.780;2023-04-22T11:42:47;24.70;1.00
6018;DHT22;3037;51.068;13.780;2023-04-22T11:45:12;25.00;1.00
6018;DHT22;3037;51.068;13.780;2023-04-22T11:47:39;24.40;1.00
6018;DHT22;3037;51.068;13.780;2023-04-22T11:50:09;24.60;1.00
6018;DHT22;3037;51.068;13.780;2023-04-22T12:00:20;23.70;1.00
6018;DHT22;3037;51.068;13.780;2023-04-22T12:03:12;24.00;1.00
6018;DHT22;3037;51.068;13.780;2023-04-22T12:05:39;23.60;1.00
6018;DHT22;3037;51.068;13.780;2023-04-22T12:08:08;23.20;1.00
6018;DHT22;3037;51.068;13.780;2023-04-22T12:10:38;23.30;1.00
6018;DHT22;3037;51.068;13.780;2023-04-22T12:13:05;23.90;1.00
6018;DHT22;3037;51.068;13.780;2023-04-22T12:15:41;23.50;1.00
6018;DHT22;3037;51.068;13.780;2023-04-22T12:18:07;23.80;1.00
6018;DHT22;3037;51.068;13.780;2023-04-22T12:20:34;23.30;1.00
6018;DHT22;3037;51.068;13.780;2023-04-22T12:23:00;23.30;1.00
6018;DHT22;3037;51.068;13.780;2023-04-22T12:25:26;23.30;1.00
6018;DHT22;3037;51.068;13.780;2023-04-22T12:27:51;23.30;1.00
6018;DHT22;3037;51.068;13.780;2023-04-22T12:30:17;22.90;1.00
6018;DHT22;3037;51.068;13.780;2023-04-22T12:32:42;23.10;1.00
6018;DHT22;3037;51.068;13.780;2023-04-22T12:35:08;23.40;1.00
6018;DHT22;3037;51.068;13.780;2023-04-22T12:37:34;23.10;1.00
6018;DHT22;3037;51.068;13.780;2023-04-22T12:39:59;23.60;1.00
6018;DHT22;3037;51.068;13.780;2023-04-22T12:42:25;23.20;1.00
6018;DHT22;3037;51.068;13.780;2023-04-22T12:44:50;23.10;1.00
6018;DHT22;3037;51.068;13.780;2023-04-22T12:47:16;23.30;1.00
6018;DHT22;3037;51.068;13.780;2023-04-22T12:49:42;24.00;1.00
6018;DHT22;3037;51.068;13.780;2023-04-22T12:52:09;23.70;1.00
6018;DHT22;3037;51.068;13.780;2023-04-22T12:54:34;23.60;1.00
6018;DHT22;3037;51.068;13.780;2023-04-22T12:57:00;23.90;1.00
6018;DHT22;3037;51.068;13.780;2023-04-22T12:59:26;23.10;1.00
6018;DHT22;3037;51.068;13.780;2023-04-22T13:01:52;23.00;1.00
6018;DHT22;3037;51.068;13.780;2023-04-22T13:04:19;23.00;1.00
6018;DHT22;3037;51.068;13.780;2023-04-22T13:06:45;22.90;1.00
6018;DHT22;3037;51.068;13.780;2023-04-22T13:09:11;23.10;1.00
6018;DHT22;3037;51.068;13.780;2023-04-22T13:11:36;23.50;1.00
6018;DHT22;3037;51.068;13.780;2023-04-22T13:14:02;23.50;1.00
6018;DHT22;3037;51.068;13.780;2023-04-22T13:16:28;23.80;1.00
6018;DHT22;3037;51.068;13.780;2023-04-22T13:18:53;23.90;1.00
6018;DHT22;3037;51.068;13.780;2023-04-22T13:21:19;23.30;1.00
6018;DHT22;3037;51.068;13.780;2023-04-22T13:23:44;23.30;1.00
6018;DHT22;3037;51.068;13.780;2023-04-22T13:26:10;23.60;1.00
6018;DHT22;3037;51.068;13.780;2023-04-22T13:28:36;23.10;1.00
6018;DHT22;3037;51.068;13.780;2023-04-22T13:31:01;22.70;1.00
6018;DHT22;3037;51.068;13.780;2023-04-22T13:33:27;22.80;1.00
6018;DHT22;3037;51.068;13.780;2023-04-22T13:35:52;23.20;1.00
6018;DHT22;3037;51.068;13.780;2023-04-22T13:38:18;22.90;1.00
6018;DHT22;3037;51.068;13.780;2023-04-22T13:40:43;22.90;1.00
6018;DHT22;3037;51.068;13.780;2023-04-22T13:43:09;23.10;1.00
6018;DHT22;3037;51.068;13.780;2023-04-22T13:45:34;23.40;1.00
6018;DHT22;3037;51.068;13.780;2023-04-22T13:48:00;23.60;1.00
6018;DHT22;3037;51.068;13.780;2023-04-22T13:50:25;23.40;1.00
6018;DHT22;3037;51.068;13.780;2023-04-22T13:52:51;23.30;1.00
6018;DHT22;3037;51.068;13.780;2023-04-22T13:55:17;22.80;1.00
6018;DHT22;3037;51.068;13.780;2023-04-22T13:57:42;22.70;1.00
6018;DHT22;3037;51.068;13.780;2023-04-22T14:00:09;22.50;1.00
6018;DHT22;3037;51.068;13.780;2023-04-22T14:02:35;22.50;1.00
6018;DHT22;3037;51.068;13.780;2023-04-22T14:05:01;22.50;1.00
6018;DHT22;3037;51.068;13.780;2023-04-22T14:07:27;22.70;1.00
6018;DHT22;3037;51.068;13.780;2023-04-22T14:09:52;22.60;1.00
6018;DHT22;3037;51.068;13.780;2023-04-22T14:12:18;22.30;1.00
6018;DHT22;3037;51.068;13.780;2023-04-22T14:14:43;21.90;1.00
6018;DHT22;3037;51.068;13.780;2023-04-22T14:17:09;22.00;1.00
6018;DHT22;3037;51.068;13.780;2023-04-22T14:19:35;22.40;1.00
6018;DHT22;3037;51.068;13.780;2023-04-22T14:22:02;22.40;1.00
6018;DHT22;3037;51.068;13.780;2023-04-22T14:24:28;22.20;1.00
6018;DHT22;3037;51.068;13.780;2023-04-22T14:26:58;22.30;1.00
6018;DHT22;3037;51.068;13.780;2023-04-22T14:29:23;22.40;1.00
6018;DHT22;3037;51.068;13.780;2023-04-22T14:31:49;22.30;1.00
6018;DHT22;3037;51.068;13.780;2023-04-22T14:34:14;22.60;1.00
6018;DHT22;3037;51.068;13.780;2023-04-22T14:36:40;22.90;1.00
6018;DHT22;3037;51.068;13.780;2023-04-22T14:39:05;22.70;1.00
6018;DHT22;3037;51.068;13.780;2023-04-22T14:41:31;22.70;1.00
6018;DHT22;3037;51.068;13.780;2023-04-22T14:43:56;23.10;1.00
6018;DHT22;3037;51.068;13.780;2023-04-22T14:46:22;22.70;1.00
6018;DHT22;3037;51.068;13.780;2023-04-22T14:48:47;22.70;1.00
6018;DHT22;3037;51.068;13.780;2023-04-22T14:51:13;23.00;1.00
6018;DHT22;3037;51.068;13.780;2023-04-22T14:53:38;22.80;1.00
6018;DHT22;3037;51.068;13.780;2023-04-22T14:56:05;23.00;1.00
6018;DHT22;3037;51.068;13.780;2023-04-22T14:58:31;23.20;1.00
6018;DHT22;3037;51.068;13.780;2023-04-22T15:00:58;23.30;1.00
6018;DHT22;3037;51.068;13.780;2023-04-22T15:03:24;23.30;1.00
6018;DHT22;3037;51.068;13.780;2023-04-22T15:05:49;22.70;1.00
6018;DHT22;3037;51.068;13.780;2023-04-22T15:08:17;22.30;1.00
6018;DHT22;3037;51.068;13.780;2023-04-22T15:10:42;22.70;1.00
6018;DHT22;3037;51.068;13.780;2023-04-22T15:13:08;22.50;1.00
6018;DHT22;3037;51.068;13.780;2023-04-22T15:15:34;22.20;1.00
6018;DHT22;3037;51.068;13.780;2023-04-22T15:17:59;22.20;1.00
6018;DHT22;3037;51.068;13.780;2023-04-22T15:20:25;22.10;1.00
6018;DHT22;3037;51.068;13.780;2023-04-22T15:22:50;22.10;1.00
6018;DHT22;3037;51.068;13.780;2023-04-22T15:25:16;22.20;1.00
6018;DHT22;3037;51.068;13.780;2023-04-22T15:27:42;22.20;1.00
6018;DHT22;3037;51.068;13.780;2023-04-22T15:30:07;22.10;1.00
6018;DHT22;3037;51.068;13.780;2023-04-22T15:32:35;22.00;1.00
6018;DHT22;3037;51.068;13.780;2023-04-22T15:35:04;22.00;1.00
6018;DHT22;3037;51.068;13.780;2023-04-22T15:37:30;22.00;1.00
6018;DHT22;3037;51.068;13.780;2023-04-22T15:39:57;21.90;1.00
6018;DHT22;3037;51.068;13.780;2023-04-22T15:42:22;21.70;1.00
6018;DHT22;3037;51.068;13.780;2023-04-22T15:44:48;21.80;1.00
6018;DHT22;3037;51.068;13.780;2023-04-22T15:47:15;22.10;1.00
6018;DHT22;3037;51.068;13.780;2023-04-22T15:49:40;21.80;1.00
6018;DHT22;3037;51.068;13.780;2023-04-22T15:52:06;21.50;1.00
6018;DHT22;3037;51.068;13.780;2023-04-22T15:54:31;21.30;1.00
6018;DHT22;3037;51.068;13.780;2023-04-22T15:56:57;21.20;1.00
6018;DHT22;3037;51.068;13.780;2023-04-22T15:59:22;21.00;1.00
6018;DHT22;3037;51.068;13.780;2023-04-22T16:01:48;21.00;1.00
6018;DHT22;3037;51.068;13.780;2023-04-22T16:04:13;20.80;1.00
6018;DHT22;3037;51.068;13.780;2023-04-22T16:06:39;20.70;1.00
6018;DHT22;3037;51.068;13.780;2023-04-22T16:09:05;20.60;1.00
6018;DHT22;3037;51.068;13.780;2023-04-22T16:11:30;20.60;1.00
6018;DHT22;3037;51.068;13.780;2023-04-22T16:13:56;20.60;1.00
6018;DHT22;3037;51.068;13.780;2023-04-22T16:16:22;20.60;1.00